sensor_id;sensor_type;location;lat;lon;timestamp;P1;durP1;ratioP1;P2;durP2;ratioP2
67528;SDS011;54366;51.980;5.856;2023-09-19T00:01:52;1.35;;;0.50;;
67528;SDS011;54366;51.980;5.856;2023-09-19T00:04:25;2.08;;;0.60;;
67528;SDS011;54366;51.980;5.856;2023-09-19T00:07:00;1.92;;;0.60;;
67528;SDS011;54366;51.980;5.856;2023-09-19T00:09:34;1.40;;;0.50;;
67528;SDS011;54366;51.980;5.856;2023-09-19T00:12:10;1.35;;;0.38;;
67528;SDS011;54366;51.980;5.856;2023-09-19T00:14:39;1.10;;;0.50;;
67528;SDS011;54366;51.980;5.856;2023-09-19T00:17:11;1.00;;;0.50;;
67528;SDS011;54366;51.980;5.856;2023-09-19T00:19:44;1.73;;;0.60;;
67528;SDS011;54366;51.980;5.856;2023-09-19T00:22:18;2.88;;;0.70;;
67528;SDS011;54366;51.980;5.856;2023-09-19T00:24:51;1.75;;;0.52;;
67528;SDS011;54366;51.980;5.856;2023-09-19T00:27:24;1.55;;;0.60;;
67528;SDS011;54366;51.980;5.856;2023-09-19T00:30:04;2.35;;;0.65;;
67528;SDS011;54366;51.980;5.856;2023-09-19T00:32:37;2.22;;;0.80;;
67528;SDS011;54366;51.980;5.856;2023-09-19T00:35:10;1.67;;;0.50;;
67528;SDS011;54366;51.980;5.856;2023-09-19T00:37:43;2.53;;;1.10;;
67528;SDS011;54366;51.980;5.856;2023-09-19T00:40:10;2.20;;;0.80;;
67528;SDS011;54366;51.980;5.856;2023-09-19T00:42:48;1.05;;;0.55;;
67528;SDS011;54366;51.980;5.856;2023-09-19T00:45:21;2.72;;;0.68;;
67528;SDS011;54366;51.980;5.856;2023-09-19T00:47:54;3.15;;;1.02;;
67528;SDS011;54366;51.980;5.856;2023-09-19T00:50:22;3.83;;;1.00;;
67528;SDS011;54366;51.980;5.856;2023-09-19T00:52:57;2.30;;;0.90;;
67528;SDS011;54366;51.980;5.856;2023-09-19T00:55:25;2.25;;;0.80;;
67528;SDS011;54366;51.980;5.856;2023-09-19T00:57:58;2.38;;;0.73;;
67528;SDS011;54366;51.980;5.856;2023-09-19T01:00:31;2.15;;;0.80;;
67528;SDS011;54366;51.980;5.856;2023-09-19T01:05:35;1.70;;;0.60;;
67528;SDS011;54366;51.980;5.856;2023-09-19T01:08:09;2.45;;;0.95;;
67528;SDS011;54366;51.980;5.856;2023-09-19T01:10:55;2.65;;;0.95;;
67528;SDS011;54366;51.980;5.856;2023-09-19T01:14:18;2.25;;;1.00;;
67528;SDS011;54366;51.980;5.856;2023-09-19T01:16:59;1.58;;;0.55;;
67528;SDS011;54366;51.980;5.856;2023-09-19T01:23:49;4.20;;;0.93;;
67528;SDS011;54366;51.980;5.856;2023-09-19T01:29:50;3.33;;;1.02;;
67528;SDS011;54366;51.980;5.856;2023-09-19T01:32:31;2.85;;;0.90;;
67528;SDS011;54366;51.980;5.856;2023-09-19T01:35:04;1.15;;;0.60;;
67528;SDS011;54366;51.980;5.856;2023-09-19T01:37:38;5.38;;;1.20;;
67528;SDS011;54366;51.980;5.856;2023-09-19T01:40:06;2.17;;;1.20;;
67528;SDS011;54366;51.980;5.856;2023-09-19T01:42:56;6.65;;;1.42;;
67528;SDS011;54366;51.980;5.856;2023-09-19T01:49:18;3.92;;;1.17;;
67528;SDS011;54366;51.980;5.856;2023-09-19T01:52:05;5.75;;;1.70;;
67528;SDS011;54366;51.980;5.856;2023-09-19T01:54:46;3.92;;;1.60;;
67528;SDS011;54366;51.980;5.856;2023-09-19T01:57:29;3.67;;;1.05;;
67528;SDS011;54366;51.980;5.856;2023-09-19T02:00:07;7.05;;;1.55;;
67528;SDS011;54366;51.980;5.856;2023-09-19T02:02:42;7.17;;;2.07;;
67528;SDS011;54366;51.980;5.856;2023-09-19T02:05:23;4.63;;;1.52;;
67528;SDS011;54366;51.980;5.856;2023-09-19T02:07:56;3.97;;;1.42;;
67528;SDS011;54366;51.980;5.856;2023-09-19T02:10:24;3.20;;;1.58;;
67528;SDS011;54366;51.980;5.856;2023-09-19T02:12:58;4.72;;;1.67;;
67528;SDS011;54366;51.980;5.856;2023-09-19T02:15:32;5.72;;;2.00;;
67528;SDS011;54366;51.980;5.856;2023-09-19T02:17:59;3.35;;;1.20;;
67528;SDS011;54366;51.980;5.856;2023-09-19T02:20:32;3.40;;;1.13;;
67528;SDS011;54366;51.980;5.856;2023-09-19T02:23:06;2.97;;;1.00;;
67528;SDS011;54366;51.980;5.856;2023-09-19T02:25:40;3.60;;;1.08;;
67528;SDS011;54366;51.980;5.856;2023-09-19T02:28:15;2.92;;;1.05;;
67528;SDS011;54366;51.980;5.856;2023-09-19T02:30:55;5.80;;;1.75;;
67528;SDS011;54366;51.980;5.856;2023-09-19T02:33:28;2.75;;;1.10;;
67528;SDS011;54366;51.980;5.856;2023-09-19T02:36:05;3.50;;;1.23;;
67528;SDS011;54366;51.980;5.856;2023-09-19T02:38:32;3.55;;;1.13;;
67528;SDS011;54366;51.980;5.856;2023-09-19T02:41:05;3.95;;;1.30;;
67528;SDS011;54366;51.980;5.856;2023-09-19T02:43:38;4.57;;;1.38;;
67528;SDS011;54366;51.980;5.856;2023-09-19T02:46:11;4.25;;;1.35;;
67528;SDS011;54366;51.980;5.856;2023-09-19T02:48:39;6.15;;;1.45;;
67528;SDS011;54366;51.980;5.856;2023-09-19T02:51:11;4.93;;;1.33;;
67528;SDS011;54366;51.980;5.856;2023-09-19T02:53:39;2.40;;;1.17;;
67528;SDS011;54366;51.980;5.856;2023-09-19T02:56:11;2.97;;;1.17;;
67528;SDS011;54366;51.980;5.856;2023-09-19T02:58:46;3.72;;;1.10;;
67528;SDS011;54366;51.980;5.856;2023-09-19T03:01:32;3.53;;;1.10;;
67528;SDS011;54366;51.980;5.856;2023-09-19T03:04:06;5.03;;;1.50;;
67528;SDS011;54366;51.980;5.856;2023-09-19T03:06:33;4.82;;;1.30;;
67528;SDS011;54366;51.980;5.856;2023-09-19T03:09:05;4.55;;;1.05;;
67528;SDS011;54366;51.980;5.856;2023-09-19T03:11:43;4.68;;;1.25;;
67528;SDS011;54366;51.980;5.856;2023-09-19T03:14:19;2.78;;;1.10;;
67528;SDS011;54366;51.980;5.856;2023-09-19T03:19:25;3.53;;;1.20;;
67528;SDS011;54366;51.980;5.856;2023-09-19T03:21:59;3.70;;;1.40;;
67528;SDS011;54366;51.980;5.856;2023-09-19T03:24:32;2.75;;;1.17;;
67528;SDS011;54366;51.980;5.856;2023-09-19T03:27:01;2.80;;;1.20;;
67528;SDS011;54366;51.980;5.856;2023-09-19T03:29:35;4.22;;;1.10;;
67528;SDS011;54366;51.980;5.856;2023-09-19T03:32:15;4.90;;;1.50;;
67528;SDS011;54366;51.980;5.856;2023-09-19T03:34:49;3.20;;;1.30;;
67528;SDS011;54366;51.980;5.856;2023-09-19T03:37:22;4.45;;;1.23;;
67528;SDS011;54366;51.980;5.856;2023-09-19T03:39:50;3.45;;;1.00;;
67528;SDS011;54366;51.980;5.856;2023-09-19T03:42:23;3.60;;;1.05;;
67528;SDS011;54366;51.980;5.856;2023-09-19T03:44:59;4.45;;;1.50;;
67528;SDS011;54366;51.980;5.856;2023-09-19T03:47:33;3.45;;;1.42;;
67528;SDS011;54366;51.980;5.856;2023-09-19T03:50:06;2.50;;;1.15;;
67528;SDS011;54366;51.980;5.856;2023-09-19T03:52:40;4.57;;;1.55;;
67528;SDS011;54366;51.980;5.856;2023-09-19T03:55:14;5.35;;;1.48;;
67528;SDS011;54366;51.980;5.856;2023-09-19T03:57:48;2.90;;;0.95;;
67528;SDS011;54366;51.980;5.856;2023-09-19T04:02:58;5.50;;;1.98;;
67528;SDS011;54366;51.980;5.856;2023-09-19T04:08:05;3.58;;;1.10;;
67528;SDS011;54366;51.980;5.856;2023-09-19T04:10:43;2.65;;;1.08;;
67528;SDS011;54366;51.980;5.856;2023-09-19T04:13:16;3.53;;;1.02;;
67528;SDS011;54366;51.980;5.856;2023-09-19T04:15:49;2.63;;;0.90;;
67528;SDS011;54366;51.980;5.856;2023-09-19T04:18:16;4.68;;;1.58;;
67528;SDS011;54366;51.980;5.856;2023-09-19T04:20:49;4.28;;;1.20;;
67528;SDS011;54366;51.980;5.856;2023-09-19T04:23:23;4.68;;;1.73;;
67528;SDS011;54366;51.980;5.856;2023-09-19T04:25:56;2.30;;;0.90;;
67528;SDS011;54366;51.980;5.856;2023-09-19T04:28:23;4.20;;;1.20;;
67528;SDS011;54366;51.980;5.856;2023-09-19T04:31:02;4.43;;;1.10;;
67528;SDS011;54366;51.980;5.856;2023-09-19T04:33:34;3.55;;;1.13;;
67528;SDS011;54366;51.980;5.856;2023-09-19T04:36:01;3.15;;;0.93;;
67528;SDS011;54366;51.980;5.856;2023-09-19T04:38:35;1.90;;;0.88;;
67528;SDS011;54366;51.980;5.856;2023-09-19T04:41:09;3.65;;;1.27;;
67528;SDS011;54366;51.980;5.856;2023-09-19T04:43:35;2.05;;;0.90;;
67528;SDS011;54366;51.980;5.856;2023-09-19T04:46:07;3.65;;;1.00;;
67528;SDS011;54366;51.980;5.856;2023-09-19T04:48:40;2.70;;;0.93;;
67528;SDS011;54366;51.980;5.856;2023-09-19T04:51:13;3.03;;;0.90;;
67528;SDS011;54366;51.980;5.856;2023-09-19T04:53:40;2.83;;;1.30;;
67528;SDS011;54366;51.980;5.856;2023-09-19T04:56:13;3.15;;;0.90;;
67528;SDS011;54366;51.980;5.856;2023-09-19T04:58:46;4.20;;;1.35;;
67528;SDS011;54366;51.980;5.856;2023-09-19T05:01:19;7.07;;;1.75;;
67528;SDS011;54366;51.980;5.856;2023-09-19T05:03:54;3.83;;;1.13;;
67528;SDS011;54366;51.980;5.856;2023-09-19T05:06:27;4.70;;;1.10;;
67528;SDS011;54366;51.980;5.856;2023-09-19T05:09:00;1.90;;;0.80;;
67528;SDS011;54366;51.980;5.856;2023-09-19T05:11:33;3.15;;;1.20;;
67528;SDS011;54366;51.980;5.856;2023-09-19T05:14:00;3.40;;;1.08;;
67528;SDS011;54366;51.980;5.856;2023-09-19T05:16:35;3.35;;;1.20;;
67528;SDS011;54366;51.980;5.856;2023-09-19T05:19:09;3.67;;;1.33;;
67528;SDS011;54366;51.980;5.856;2023-09-19T05:21:37;3.45;;;1.00;;
67528;SDS011;54366;51.980;5.856;2023-09-19T05:24:10;3.20;;;1.23;;
67528;SDS011;54366;51.980;5.856;2023-09-19T05:26:44;2.97;;;1.17;;
67528;SDS011;54366;51.980;5.856;2023-09-19T05:29:17;3.72;;;1.25;;
67528;SDS011;54366;51.980;5.856;2023-09-19T05:32:04;1.58;;;0.80;;
67528;SDS011;54366;51.980;5.856;2023-09-19T05:34:38;4.50;;;1.00;;
67528;SDS011;54366;51.980;5.856;2023-09-19T05:37:04;2.92;;;0.95;;
67528;SDS011;54366;51.980;5.856;2023-09-19T05:39:40;3.42;;;1.05;;
67528;SDS011;54366;51.980;5.856;2023-09-19T05:42:13;3.85;;;1.25;;
67528;SDS011;54366;51.980;5.856;2023-09-19T05:44:46;2.63;;;1.00;;
67528;SDS011;54366;51.980;5.856;2023-09-19T05:47:19;3.22;;;1.08;;
67528;SDS011;54366;51.980;5.856;2023-09-19T05:49:54;4.07;;;1.00;;
67528;SDS011;54366;51.980;5.856;2023-09-19T05:52:21;3.20;;;1.17;;
67528;SDS011;54366;51.980;5.856;2023-09-19T05:54:54;3.55;;;1.25;;
67528;SDS011;54366;51.980;5.856;2023-09-19T05:57:28;3.40;;;1.20;;
67528;SDS011;54366;51.980;5.856;2023-09-19T06:00:03;3.72;;;1.10;;
67528;SDS011;54366;51.980;5.856;2023-09-19T06:02:40;4.00;;;1.25;;
67528;SDS011;54366;51.980;5.856;2023-09-19T06:05:07;2.40;;;0.80;;
67528;SDS011;54366;51.980;5.856;2023-09-19T06:07:42;4.57;;;1.00;;
67528;SDS011;54366;51.980;5.856;2023-09-19T06:10:16;4.13;;;1.20;;
67528;SDS011;54366;51.980;5.856;2023-09-19T06:12:49;4.28;;;1.23;;
67528;SDS011;54366;51.980;5.856;2023-09-19T06:15:23;2.53;;;0.82;;
67528;SDS011;54366;51.980;5.856;2023-09-19T06:17:51;3.30;;;1.13;;
67528;SDS011;54366;51.980;5.856;2023-09-19T06:20:26;3.05;;;0.82;;
67528;SDS011;54366;51.980;5.856;2023-09-19T06:23:00;4.13;;;1.20;;
67528;SDS011;54366;51.980;5.856;2023-09-19T06:25:33;2.67;;;0.90;;
67528;SDS011;54366;51.980;5.856;2023-09-19T06:28:06;4.70;;;1.50;;
67528;SDS011;54366;51.980;5.856;2023-09-19T06:30:40;3.13;;;1.40;;
67528;SDS011;54366;51.980;5.856;2023-09-19T06:33:27;4.25;;;1.20;;
67528;SDS011;54366;51.980;5.856;2023-09-19T06:35:59;4.18;;;1.27;;
67528;SDS011;54366;51.980;5.856;2023-09-19T06:38:35;4.45;;;1.15;;
67528;SDS011;54366;51.980;5.856;2023-09-19T06:41:02;5.85;;;1.60;;
67528;SDS011;54366;51.980;5.856;2023-09-19T06:43:40;4.15;;;1.60;;
67528;SDS011;54366;51.980;5.856;2023-09-19T06:46:13;4.65;;;1.42;;
67528;SDS011;54366;51.980;5.856;2023-09-19T06:48:47;3.28;;;1.00;;
67528;SDS011;54366;51.980;5.856;2023-09-19T06:51:21;3.28;;;1.35;;
67528;SDS011;54366;51.980;5.856;2023-09-19T06:53:54;3.92;;;1.33;;
67528;SDS011;54366;51.980;5.856;2023-09-19T06:56:28;3.38;;;1.10;;
67528;SDS011;54366;51.980;5.856;2023-09-19T06:59:01;5.65;;;1.55;;
67528;SDS011;54366;51.980;5.856;2023-09-19T07:01:34;3.70;;;1.27;;
67528;SDS011;54366;51.980;5.856;2023-09-19T07:04:03;4.13;;;1.20;;
67528;SDS011;54366;51.980;5.856;2023-09-19T07:06:37;4.53;;;1.60;;
67528;SDS011;54366;51.980;5.856;2023-09-19T07:09:12;5.00;;;1.33;;
67528;SDS011;54366;51.980;5.856;2023-09-19T07:11:45;4.53;;;1.20;;
67528;SDS011;54366;51.980;5.856;2023-09-19T07:14:17;5.95;;;1.70;;
67528;SDS011;54366;51.980;5.856;2023-09-19T07:16:51;5.87;;;1.70;;
67528;SDS011;54366;51.980;5.856;2023-09-19T07:19:23;4.57;;;1.25;;
67528;SDS011;54366;51.980;5.856;2023-09-19T07:21:50;6.32;;;1.92;;
67528;SDS011;54366;51.980;5.856;2023-09-19T07:24:23;6.70;;;1.50;;
67528;SDS011;54366;51.980;5.856;2023-09-19T07:26:55;5.82;;;1.63;;
67528;SDS011;54366;51.980;5.856;2023-09-19T07:29:29;9.10;;;2.03;;
67528;SDS011;54366;51.980;5.856;2023-09-19T07:32:09;5.57;;;1.67;;
67528;SDS011;54366;51.980;5.856;2023-09-19T07:34:37;7.93;;;1.98;;
67528;SDS011;54366;51.980;5.856;2023-09-19T07:37:12;6.60;;;1.63;;
67528;SDS011;54366;51.980;5.856;2023-09-19T07:39:48;5.15;;;1.75;;
67528;SDS011;54366;51.980;5.856;2023-09-19T07:42:14;3.63;;;1.20;;
67528;SDS011;54366;51.980;5.856;2023-09-19T07:44:50;7.93;;;1.90;;
67528;SDS011;54366;51.980;5.856;2023-09-19T07:47:16;5.53;;;1.45;;
67528;SDS011;54366;51.980;5.856;2023-09-19T07:49:48;8.45;;;1.92;;
67528;SDS011;54366;51.980;5.856;2023-09-19T07:52:15;7.10;;;1.85;;
67528;SDS011;54366;51.980;5.856;2023-09-19T07:54:48;5.78;;;1.70;;
67528;SDS011;54366;51.980;5.856;2023-09-19T07:57:21;5.53;;;1.77;;
67528;SDS011;54366;51.980;5.856;2023-09-19T07:59:54;8.07;;;2.05;;
67528;SDS011;54366;51.980;5.856;2023-09-19T08:02:37;5.72;;;2.08;;
67528;SDS011;54366;51.980;5.856;2023-09-19T08:05:11;5.07;;;1.50;;
67528;SDS011;54366;51.980;5.856;2023-09-19T08:07:47;5.18;;;1.60;;
67528;SDS011;54366;51.980;5.856;2023-09-19T08:10:14;7.22;;;1.92;;
67528;SDS011;54366;51.980;5.856;2023-09-19T08:12:48;6.63;;;2.00;;
67528;SDS011;54366;51.980;5.856;2023-09-19T08:15:27;7.38;;;2.03;;
67528;SDS011;54366;51.980;5.856;2023-09-19T08:18:00;6.22;;;1.95;;
67528;SDS011;54366;51.980;5.856;2023-09-19T08:20:34;8.60;;;2.40;;
67528;SDS011;54366;51.980;5.856;2023-09-19T08:23:00;6.95;;;2.08;;
67528;SDS011;54366;51.980;5.856;2023-09-19T08:25:33;7.22;;;2.20;;
67528;SDS011;54366;51.980;5.856;2023-09-19T08:28:05;6.70;;;1.98;;
67528;SDS011;54366;51.980;5.856;2023-09-19T08:30:47;8.63;;;2.35;;
67528;SDS011;54366;51.980;5.856;2023-09-19T08:33:19;8.02;;;2.35;;
67528;SDS011;54366;51.980;5.856;2023-09-19T08:35:55;8.55;;;2.80;;
67528;SDS011;54366;51.980;5.856;2023-09-19T08:38:21;8.82;;;2.60;;
67528;SDS011;54366;51.980;5.856;2023-09-19T08:40:57;6.67;;;2.30;;
67528;SDS011;54366;51.980;5.856;2023-09-19T08:43:37;8.68;;;2.10;;
67528;SDS011;54366;51.980;5.856;2023-09-19T08:46:11;7.05;;;1.98;;
67528;SDS011;54366;51.980;5.856;2023-09-19T08:48:54;9.00;;;1.98;;
67528;SDS011;54366;51.980;5.856;2023-09-19T08:51:41;9.30;;;2.15;;
67528;SDS011;54366;51.980;5.856;2023-09-19T08:54:26;6.60;;;2.15;;
67528;SDS011;54366;51.980;5.856;2023-09-19T08:57:06;9.52;;;2.83;;
67528;SDS011;54366;51.980;5.856;2023-09-19T08:59:50;7.28;;;2.67;;
67528;SDS011;54366;51.980;5.856;2023-09-19T09:02:17;7.00;;;2.25;;
67528;SDS011;54366;51.980;5.856;2023-09-19T09:04:52;8.38;;;2.53;;
67528;SDS011;54366;51.980;5.856;2023-09-19T09:07:27;8.02;;;1.92;;
67528;SDS011;54366;51.980;5.856;2023-09-19T09:10:02;7.28;;;2.38;;
67528;SDS011;54366;51.980;5.856;2023-09-19T09:12:29;10.20;;;2.63;;
67528;SDS011;54366;51.980;5.856;2023-09-19T09:15:03;7.20;;;2.83;;
67528;SDS011;54366;51.980;5.856;2023-09-19T09:17:37;6.70;;;2.90;;
67528;SDS011;54366;51.980;5.856;2023-09-19T09:20:10;6.22;;;2.53;;
67528;SDS011;54366;51.980;5.856;2023-09-19T09:22:53;6.78;;;2.55;;
67528;SDS011;54366;51.980;5.856;2023-09-19T09:25:52;10.23;;;2.83;;
67528;SDS011;54366;51.980;5.856;2023-09-19T09:28:29;8.32;;;2.35;;
67528;SDS011;54366;51.980;5.856;2023-09-19T09:31:03;6.70;;;2.47;;
67528;SDS011;54366;51.980;5.856;2023-09-19T09:33:42;7.07;;;2.13;;
67528;SDS011;54366;51.980;5.856;2023-09-19T09:36:40;7.03;;;2.30;;
67528;SDS011;54366;51.980;5.856;2023-09-19T09:39:27;5.10;;;2.30;;
67528;SDS011;54366;51.980;5.856;2023-09-19T09:42:04;5.20;;;1.60;;
67528;SDS011;54366;51.980;5.856;2023-09-19T09:44:32;6.30;;;2.20;;
67528;SDS011;54366;51.980;5.856;2023-09-19T09:47:04;6.82;;;2.33;;
67528;SDS011;54366;51.980;5.856;2023-09-19T09:49:56;6.22;;;2.25;;
67528;SDS011;54366;51.980;5.856;2023-09-19T09:52:45;6.18;;;2.33;;
67528;SDS011;54366;51.980;5.856;2023-09-19T09:55:19;7.97;;;2.53;;
67528;SDS011;54366;51.980;5.856;2023-09-19T09:58:15;7.63;;;2.33;;
67528;SDS011;54366;51.980;5.856;2023-09-19T10:00:56;5.80;;;2.10;;
67528;SDS011;54366;51.980;5.856;2023-09-19T10:03:33;7.13;;;2.47;;
67528;SDS011;54366;51.980;5.856;2023-09-19T10:06:12;5.63;;;2.22;;
67528;SDS011;54366;51.980;5.856;2023-09-19T10:08:59;9.32;;;2.40;;
67528;SDS011;54366;51.980;5.856;2023-09-19T10:11:48;7.82;;;2.28;;
67528;SDS011;54366;51.980;5.856;2023-09-19T10:14:35;5.10;;;1.92;;
67528;SDS011;54366;51.980;5.856;2023-09-19T10:17:06;6.85;;;2.00;;
67528;SDS011;54366;51.980;5.856;2023-09-19T10:19:45;6.60;;;2.22;;
67528;SDS011;54366;51.980;5.856;2023-09-19T10:22:25;5.68;;;2.15;;
67528;SDS011;54366;51.980;5.856;2023-09-19T10:24:55;11.02;;;3.25;;
67528;SDS011;54366;51.980;5.856;2023-09-19T10:27:30;6.47;;;2.25;;
67528;SDS011;54366;51.980;5.856;2023-09-19T10:30:10;7.60;;;3.05;;
67528;SDS011;54366;51.980;5.856;2023-09-19T10:32:55;7.07;;;2.50;;
67528;SDS011;54366;51.980;5.856;2023-09-19T10:35:34;6.90;;;1.90;;
67528;SDS011;54366;51.980;5.856;2023-09-19T10:38:22;5.38;;;1.60;;
67528;SDS011;54366;51.980;5.856;2023-09-19T10:40:57;3.92;;;1.70;;
67528;SDS011;54366;51.980;5.856;2023-09-19T10:43:33;5.93;;;1.73;;
67528;SDS011;54366;51.980;5.856;2023-09-19T10:46:06;5.00;;;1.92;;
67528;SDS011;54366;51.980;5.856;2023-09-19T10:48:43;5.53;;;2.03;;
67528;SDS011;54366;51.980;5.856;2023-09-19T10:51:16;7.13;;;2.03;;
67528;SDS011;54366;51.980;5.856;2023-09-19T10:54:00;7.00;;;2.20;;
67528;SDS011;54366;51.980;5.856;2023-09-19T10:56:43;5.15;;;1.80;;
67528;SDS011;54366;51.980;5.856;2023-09-19T10:59:21;5.28;;;1.90;;
67528;SDS011;54366;51.980;5.856;2023-09-19T11:01:50;8.55;;;2.47;;
67528;SDS011;54366;51.980;5.856;2023-09-19T11:04:24;5.43;;;1.75;;
67528;SDS011;54366;51.980;5.856;2023-09-19T11:07:08;6.72;;;1.77;;
67528;SDS011;54366;51.980;5.856;2023-09-19T11:09:52;7.20;;;1.80;;
67528;SDS011;54366;51.980;5.856;2023-09-19T11:18:52;6.25;;;2.15;;
67528;SDS011;54366;51.980;5.856;2023-09-19T11:24:27;5.13;;;2.00;;
67528;SDS011;54366;51.980;5.856;2023-09-19T11:27:12;4.88;;;2.00;;
67528;SDS011;54366;51.980;5.856;2023-09-19T11:29:47;7.07;;;2.15;;
67528;SDS011;54366;51.980;5.856;2023-09-19T11:36:13;5.60;;;2.28;;
67528;SDS011;54366;51.980;5.856;2023-09-19T11:38:58;5.50;;;1.50;;
67528;SDS011;54366;51.980;5.856;2023-09-19T11:41:40;6.40;;;1.67;;
67528;SDS011;54366;51.980;5.856;2023-09-19T11:47:07;5.32;;;1.42;;
67528;SDS011;54366;51.980;5.856;2023-09-19T11:49:43;6.85;;;2.00;;
67528;SDS011;54366;51.980;5.856;2023-09-19T11:52:10;10.25;;;2.75;;
67528;SDS011;54366;51.980;5.856;2023-09-19T11:54:58;5.03;;;1.90;;
67528;SDS011;54366;51.980;5.856;2023-09-19T11:57:34;6.38;;;1.80;;
67528;SDS011;54366;51.980;5.856;2023-09-19T12:02:48;5.60;;;2.17;;
67528;SDS011;54366;51.980;5.856;2023-09-19T12:05:30;4.53;;;1.70;;
67528;SDS011;54366;51.980;5.856;2023-09-19T12:08:07;5.28;;;1.55;;
67528;SDS011;54366;51.980;5.856;2023-09-19T12:10:50;7.10;;;1.75;;
67528;SDS011;54366;51.980;5.856;2023-09-19T12:13:24;6.47;;;1.60;;
67528;SDS011;54366;51.980;5.856;2023-09-19T12:18:33;5.70;;;1.63;;
67528;SDS011;54366;51.980;5.856;2023-09-19T12:21:08;3.60;;;1.20;;
67528;SDS011;54366;51.980;5.856;2023-09-19T12:24:06;4.03;;;1.80;;
67528;SDS011;54366;51.980;5.856;2023-09-19T12:26:45;4.65;;;1.20;;
67528;SDS011;54366;51.980;5.856;2023-09-19T12:29:24;3.30;;;1.20;;
67528;SDS011;54366;51.980;5.856;2023-09-19T12:31:57;5.43;;;1.73;;
67528;SDS011;54366;51.980;5.856;2023-09-19T12:34:38;3.47;;;1.25;;
67528;SDS011;54366;51.980;5.856;2023-09-19T12:37:17;2.55;;;0.95;;
67528;SDS011;54366;51.980;5.856;2023-09-19T12:40:03;5.03;;;1.40;;
67528;SDS011;54366;51.980;5.856;2023-09-19T12:42:49;3.95;;;1.30;;
67528;SDS011;54366;51.980;5.856;2023-09-19T12:45:16;4.47;;;1.13;;
67528;SDS011;54366;51.980;5.856;2023-09-19T12:53:45;3.47;;;0.80;;
67528;SDS011;54366;51.980;5.856;2023-09-19T12:56:21;2.50;;;0.80;;
67528;SDS011;54366;51.980;5.856;2023-09-19T12:58:52;4.80;;;1.27;;
67528;SDS011;54366;51.980;5.856;2023-09-19T13:01:42;2.63;;;1.00;;
67528;SDS011;54366;51.980;5.856;2023-09-19T13:04:18;1.90;;;0.90;;
67528;SDS011;54366;51.980;5.856;2023-09-19T13:06:58;5.32;;;0.98;;
67528;SDS011;54366;51.980;5.856;2023-09-19T13:09:27;3.40;;;1.10;;
67528;SDS011;54366;51.980;5.856;2023-09-19T13:15:11;2.78;;;0.60;;
67528;SDS011;54366;51.980;5.856;2023-09-19T13:17:56;1.88;;;0.60;;
67528;SDS011;54366;51.980;5.856;2023-09-19T13:20:26;4.00;;;0.80;;
67528;SDS011;54366;51.980;5.856;2023-09-19T13:23:04;2.33;;;0.90;;
67528;SDS011;54366;51.980;5.856;2023-09-19T13:25:42;3.45;;;0.68;;
67528;SDS011;54366;51.980;5.856;2023-09-19T13:28:15;1.73;;;0.45;;
67528;SDS011;54366;51.980;5.856;2023-09-19T13:30:47;2.42;;;0.57;;
67528;SDS011;54366;51.980;5.856;2023-09-19T13:33:27;3.78;;;0.90;;
67528;SDS011;54366;51.980;5.856;2023-09-19T13:36:00;3.50;;;0.65;;
67528;SDS011;54366;51.980;5.856;2023-09-19T13:38:26;1.50;;;0.55;;
67528;SDS011;54366;51.980;5.856;2023-09-19T13:40:59;1.08;;;0.50;;
67528;SDS011;54366;51.980;5.856;2023-09-19T13:46:06;1.80;;;0.40;;
67528;SDS011;54366;51.980;5.856;2023-09-19T13:48:47;3.17;;;0.75;;
67528;SDS011;54366;51.980;5.856;2023-09-19T13:51:15;7.82;;;0.60;;
67528;SDS011;54366;51.980;5.856;2023-09-19T13:53:49;3.53;;;0.60;;
67528;SDS011;54366;51.980;5.856;2023-09-19T13:58:57;3.43;;;0.50;;
67528;SDS011;54366;51.980;5.856;2023-09-19T14:01:30;1.90;;;0.50;;
67528;SDS011;54366;51.980;5.856;2023-09-19T14:04:03;1.57;;;0.30;;
67528;SDS011;54366;51.980;5.856;2023-09-19T14:06:29;1.40;;;0.50;;
67528;SDS011;54366;51.980;5.856;2023-09-19T14:09:02;1.63;;;0.50;;
67528;SDS011;54366;51.980;5.856;2023-09-19T14:14:09;4.53;;;0.60;;
67528;SDS011;54366;51.980;5.856;2023-09-19T14:16:35;1.45;;;0.40;;
67528;SDS011;54366;51.980;5.856;2023-09-19T14:19:09;2.80;;;0.50;;
67528;SDS011;54366;51.980;5.856;2023-09-19T14:21:42;1.48;;;0.60;;
67528;SDS011;54366;51.980;5.856;2023-09-19T14:26:50;3.17;;;0.70;;
67528;SDS011;54366;51.980;5.856;2023-09-19T14:29:23;1.93;;;0.47;;
67528;SDS011;54366;51.980;5.856;2023-09-19T14:31:56;2.80;;;0.53;;
67528;SDS011;54366;51.980;5.856;2023-09-19T14:34:30;2.03;;;0.60;;
67528;SDS011;54366;51.980;5.856;2023-09-19T14:37:03;2.30;;;0.60;;
67528;SDS011;54366;51.980;5.856;2023-09-19T14:39:36;1.60;;;0.40;;
67528;SDS011;54366;51.980;5.856;2023-09-19T14:42:11;1.73;;;0.50;;
67528;SDS011;54366;51.980;5.856;2023-09-19T14:47:12;4.93;;;0.60;;
67528;SDS011;54366;51.980;5.856;2023-09-19T14:49:46;2.20;;;0.63;;
67528;SDS011;54366;51.980;5.856;2023-09-19T14:52:19;3.35;;;0.88;;
67528;SDS011;54366;51.980;5.856;2023-09-19T14:54:52;3.97;;;0.82;;
67528;SDS011;54366;51.980;5.856;2023-09-19T14:57:18;2.35;;;0.60;;
67528;SDS011;54366;51.980;5.856;2023-09-19T14:59:52;2.80;;;0.60;;
67528;SDS011;54366;51.980;5.856;2023-09-19T15:02:25;2.78;;;0.70;;
67528;SDS011;54366;51.980;5.856;2023-09-19T15:04:58;2.22;;;0.70;;
67528;SDS011;54366;51.980;5.856;2023-09-19T15:07:31;3.58;;;0.75;;
67528;SDS011;54366;51.980;5.856;2023-09-19T15:10:04;2.58;;;0.63;;
67528;SDS011;54366;51.980;5.856;2023-09-19T15:12:42;3.17;;;0.80;;
67528;SDS011;54366;51.980;5.856;2023-09-19T15:15:15;2.65;;;0.60;;
67528;SDS011;54366;51.980;5.856;2023-09-19T15:17:48;3.42;;;0.93;;
67528;SDS011;54366;51.980;5.856;2023-09-19T15:20:21;2.35;;;0.73;;
67528;SDS011;54366;51.980;5.856;2023-09-19T15:22:47;2.42;;;0.60;;
67528;SDS011;54366;51.980;5.856;2023-09-19T15:25:20;1.70;;;0.70;;
67528;SDS011;54366;51.980;5.856;2023-09-19T15:27:46;1.98;;;0.60;;
67528;SDS011;54366;51.980;5.856;2023-09-19T15:30:19;2.00;;;0.70;;
67528;SDS011;54366;51.980;5.856;2023-09-19T15:32:58;2.00;;;0.70;;
67528;SDS011;54366;51.980;5.856;2023-09-19T15:35:32;2.15;;;0.55;;
67528;SDS011;54366;51.980;5.856;2023-09-19T15:38:05;1.52;;;0.57;;
67528;SDS011;54366;51.980;5.856;2023-09-19T15:40:45;1.33;;;0.80;;
67528;SDS011;54366;51.980;5.856;2023-09-19T15:43:19;1.80;;;0.75;;
67528;SDS011;54366;51.980;5.856;2023-09-19T15:48:19;3.67;;;0.70;;
67528;SDS011;54366;51.980;5.856;2023-09-19T15:50:54;2.47;;;0.60;;
67528;SDS011;54366;51.980;5.856;2023-09-19T15:53:20;1.88;;;0.60;;
67528;SDS011;54366;51.980;5.856;2023-09-19T15:55:53;2.50;;;0.68;;
67528;SDS011;54366;51.980;5.856;2023-09-19T15:58:19;2.53;;;0.60;;
67528;SDS011;54366;51.980;5.856;2023-09-19T16:00:52;2.25;;;0.90;;
67528;SDS011;54366;51.980;5.856;2023-09-19T16:03:25;2.13;;;0.65;;
67528;SDS011;54366;51.980;5.856;2023-09-19T16:05:59;2.80;;;0.70;;
67528;SDS011;54366;51.980;5.856;2023-09-19T16:08:32;1.10;;;0.50;;
67528;SDS011;54366;51.980;5.856;2023-09-19T16:11:06;3.20;;;0.80;;
67528;SDS011;54366;51.980;5.856;2023-09-19T16:13:39;1.90;;;0.63;;
67528;SDS011;54366;51.980;5.856;2023-09-19T16:18:48;4.15;;;1.00;;
67528;SDS011;54366;51.980;5.856;2023-09-19T16:21:17;5.95;;;0.80;;
67528;SDS011;54366;51.980;5.856;2023-09-19T16:23:52;2.97;;;0.88;;
67528;SDS011;54366;51.980;5.856;2023-09-19T16:26:21;1.70;;;0.90;;
67528;SDS011;54366;51.980;5.856;2023-09-19T16:28:56;3.80;;;0.90;;
67528;SDS011;54366;51.980;5.856;2023-09-19T16:31:33;3.38;;;1.10;;
67528;SDS011;54366;51.980;5.856;2023-09-19T16:34:19;1.45;;;0.80;;
67528;SDS011;54366;51.980;5.856;2023-09-19T16:36:52;1.33;;;0.50;;
67528;SDS011;54366;51.980;5.856;2023-09-19T16:39:18;1.95;;;0.70;;
67528;SDS011;54366;51.980;5.856;2023-09-19T16:41:51;2.10;;;0.80;;
67528;SDS011;54366;51.980;5.856;2023-09-19T16:44:24;3.28;;;0.90;;